Mayfield, Utah
Current Conditions -  °F | °C
As of 10:35 AM on Sunday 23 Nov 2014 (Local Time) from KDTA Reporting Station
Clear Clear  
Wind Chill: 25°   Ceiling: Unl
Heat Index: 35°   Visibility: 10mi
Dew Point: 22°   Wind: 17mph
Humidity: 58%   Direction: 320°NW
Pressure: 30.26"   Gusts: 22mph
Location:  39.11°N, 111.71°W
Report Text: KDTA 231735Z AUTO 32015G19KT 10SM CLR 02/M06 A3026 RMK AO1 T00171058
Loading
Personal Weather Stations






























Interactive Weather Map New forecast layout! Learn more

10-Day Weather Forecast

Advertisements
Track Severe Weather on mobile